createdAt,value
2023-05-09T00:00:14.800Z,15.00
2023-05-09T00:02:45.903Z,15.00
2023-05-09T00:05:16.151Z,15.00
2023-05-09T00:07:44.596Z,14.90
2023-05-09T00:10:12.778Z,14.90
2023-05-09T00:12:41.769Z,14.80
2023-05-09T00:15:10.648Z,14.70
2023-05-09T00:17:40.068Z,14.60
2023-05-09T00:20:12.361Z,14.50
2023-05-09T00:22:42.557Z,14.40
2023-05-09T00:25:12.895Z,14.30
2023-05-09T00:27:41.235Z,14.20
2023-05-09T00:30:10.252Z,14.20
2023-05-09T00:32:40.319Z,14.10
2023-05-09T00:35:10.020Z,14.00
2023-05-09T00:37:38.280Z,14.00
2023-05-09T00:40:09.277Z,13.90
2023-05-09T00:42:37.645Z,13.90
2023-05-09T00:45:06.979Z,13.80
2023-05-09T00:47:36.039Z,13.70
2023-05-09T00:50:04.605Z,13.70
2023-05-09T00:52:34.538Z,13.60
2023-05-09T00:55:04.534Z,13.60
2023-05-09T00:57:34.250Z,13.60
2023-05-09T01:00:04.437Z,13.50
2023-05-09T01:02:33.169Z,13.60
2023-05-09T01:05:02.038Z,13.60
2023-05-09T01:07:36.684Z,13.60
2023-05-09T01:10:10.897Z,13.60
2023-05-09T01:12:46.735Z,13.50
2023-05-09T01:15:32.759Z,13.50
2023-05-09T01:18:07.484Z,13.40
2023-05-09T01:20:39.447Z,13.40
2023-05-09T01:23:27.420Z,13.30
2023-05-09T01:26:04.391Z,13.30
2023-05-09T01:29:02.401Z,13.30
2023-05-09T01:31:33.949Z,13.20
2023-05-09T01:34:05.859Z,13.40
2023-05-09T01:36:37.840Z,13.10
2023-05-09T01:39:06.902Z,13.10
2023-05-09T01:41:38.599Z,13.10
2023-05-09T01:44:10.993Z,13.00
2023-05-09T01:46:40.913Z,13.00
2023-05-09T01:49:10.150Z,13.00
2023-05-09T01:51:40.782Z,13.00
2023-05-09T01:54:12.559Z,12.90
2023-05-09T01:56:43.670Z,12.90
2023-05-09T01:59:16.098Z,13.00
2023-05-09T02:01:46.864Z,12.90
2023-05-09T02:04:17.067Z,12.90
2023-05-09T02:06:47.063Z,12.90
2023-05-09T02:09:15.160Z,12.90
2023-05-09T02:11:43.185Z,12.90
2023-05-09T02:14:11.420Z,12.80
2023-05-09T02:16:40.745Z,12.80
2023-05-09T02:19:10.191Z,12.70
2023-05-09T02:21:38.346Z,13.10
2023-05-09T02:24:07.326Z,12.70
2023-05-09T02:26:36.710Z,12.60
2023-05-09T02:29:06.645Z,12.60
2023-05-09T02:31:36.162Z,12.80
2023-05-09T02:34:06.276Z,12.50
2023-05-09T02:36:36.415Z,12.50
2023-05-09T02:39:04.707Z,12.90
2023-05-09T02:41:32.769Z,12.40
2023-05-09T02:44:00.874Z,12.70
2023-05-09T02:46:29.513Z,12.30
2023-05-09T02:48:57.718Z,12.40
2023-05-09T02:51:25.860Z,12.30
2023-05-09T02:53:55.889Z,12.20
2023-05-09T02:56:24.014Z,12.20
2023-05-09T02:58:52.011Z,12.20
2023-05-09T03:01:20.114Z,12.20
2023-05-09T03:03:48.239Z,12.10
2023-05-09T03:06:16.371Z,12.10
2023-05-09T03:08:44.366Z,12.10
2023-05-09T03:11:13.857Z,12.10
2023-05-09T03:13:41.925Z,12.10
2023-05-09T03:16:10.372Z,12.10
2023-05-09T03:18:38.413Z,12.10
2023-05-09T03:21:06.597Z,12.20
2023-05-09T03:23:34.583Z,12.20
2023-05-09T03:26:02.682Z,12.20
2023-05-09T03:28:32.229Z,12.80
2023-05-09T03:33:28.691Z,12.20
2023-05-09T03:35:56.764Z,12.20
2023-05-09T03:38:24.852Z,12.20
2023-05-09T03:40:54.643Z,12.20
2023-05-09T03:43:22.729Z,12.20
2023-05-09T03:45:52.177Z,12.20
2023-05-09T03:48:20.242Z,12.20
2023-05-09T03:50:48.246Z,12.20
2023-05-09T03:53:16.351Z,12.20
2023-05-09T03:55:44.464Z,12.20
2023-05-09T03:58:13.043Z,12.10
2023-05-09T04:00:42.458Z,12.30
2023-05-09T04:03:12.473Z,12.40
2023-05-09T04:05:40.772Z,12.50
2023-05-09T04:08:08.981Z,12.60
2023-05-09T04:10:37.149Z,12.60
2023-05-09T04:13:05.564Z,12.70
2023-05-09T04:15:33.591Z,12.90
2023-05-09T04:18:01.751Z,13.00
2023-05-09T04:20:31.323Z,13.00
2023-05-09T04:22:59.353Z,13.10
2023-05-09T04:25:27.624Z,13.20
2023-05-09T04:27:55.685Z,13.30
2023-05-09T04:30:23.865Z,13.40
2023-05-09T04:32:53.493Z,13.50
2023-05-09T04:35:21.781Z,13.60
2023-05-09T04:37:52.535Z,13.70
2023-05-09T04:40:20.554Z,14.00
2023-05-09T04:42:48.786Z,14.00
2023-05-09T04:45:17.342Z,14.00
2023-05-09T04:47:45.608Z,14.00
2023-05-09T04:50:14.026Z,14.10
2023-05-09T04:52:42.019Z,14.10
2023-05-09T04:55:11.893Z,14.20
2023-05-09T04:57:39.924Z,14.20
2023-05-09T05:00:11.380Z,14.20
2023-05-09T05:02:39.694Z,14.20
2023-05-09T05:05:17.483Z,14.30
2023-05-09T05:07:45.922Z,14.30
2023-05-09T05:10:15.362Z,14.40
2023-05-09T05:12:43.338Z,14.50
2023-05-09T05:15:12.567Z,14.60
2023-05-09T05:17:40.762Z,14.70
2023-05-09T05:20:10.655Z,14.80
2023-05-09T05:22:38.736Z,14.80
2023-05-09T05:25:08.039Z,14.90
2023-05-09T05:27:37.538Z,14.90
2023-05-09T05:30:07.743Z,15.00
2023-05-09T05:32:35.766Z,15.00
2023-05-09T05:35:04.922Z,15.00
2023-05-09T05:37:32.942Z,15.00
2023-05-09T05:40:01.205Z,15.00
2023-05-09T05:42:29.202Z,15.10
2023-05-09T05:45:04.175Z,15.10
2023-05-09T05:47:33.091Z,15.10
2023-05-09T05:50:01.875Z,15.20
2023-05-09T05:52:30.005Z,15.30
2023-05-09T05:54:58.030Z,15.40
2023-05-09T05:57:26.007Z,15.50
2023-05-09T05:59:54.210Z,15.50
2023-05-09T06:02:24.153Z,15.70
2023-05-09T06:04:53.901Z,15.80
2023-05-09T06:07:23.397Z,16.10
2023-05-09T06:09:53.195Z,16.20
2023-05-09T06:12:21.618Z,16.40
2023-05-09T06:14:49.778Z,16.40
2023-05-09T06:17:17.996Z,16.40
2023-05-09T06:19:47.534Z,16.50
2023-05-09T06:22:15.537Z,16.50
2023-05-09T06:24:43.613Z,16.60
2023-05-09T06:27:12.055Z,16.60
2023-05-09T06:29:40.409Z,16.70
2023-05-09T06:32:08.458Z,16.80
2023-05-09T06:34:36.609Z,16.90
2023-05-09T06:37:06.178Z,17.00
2023-05-09T06:39:35.557Z,17.10
2023-05-09T06:42:03.924Z,17.30
2023-05-09T06:44:32.618Z,17.30
2023-05-09T06:47:01.600Z,17.30
2023-05-09T06:49:29.596Z,17.30
2023-05-09T06:51:58.414Z,17.30
2023-05-09T06:54:27.929Z,17.30
2023-05-09T06:56:55.902Z,17.30
2023-05-09T06:59:23.988Z,17.40
2023-05-09T07:01:52.242Z,17.50
2023-05-09T07:04:20.369Z,17.60
2023-05-09T07:06:48.775Z,17.60
2023-05-09T07:09:20.499Z,17.60
2023-05-09T07:11:50.251Z,17.60
2023-05-09T07:14:18.344Z,17.80
2023-05-09T07:16:46.829Z,18.00
2023-05-09T07:19:15.000Z,18.20
2023-05-09T07:21:43.713Z,18.40
2023-05-09T07:24:11.971Z,18.50
2023-05-09T07:26:40.073Z,18.70
2023-05-09T07:29:09.672Z,18.70
2023-05-09T07:31:37.850Z,18.70
2023-05-09T07:34:05.947Z,18.80
2023-05-09T07:36:35.471Z,18.80
2023-05-09T07:39:04.879Z,19.00
2023-05-09T07:41:32.991Z,19.10
2023-05-09T07:44:00.958Z,19.10
2023-05-09T07:46:30.474Z,18.90
2023-05-09T07:48:58.556Z,18.70
2023-05-09T07:51:26.603Z,18.60
2023-05-09T07:53:56.266Z,18.60
2023-05-09T07:56:25.519Z,18.50
2023-05-09T07:58:55.575Z,18.30
2023-05-09T08:01:23.976Z,18.20
2023-05-09T08:03:53.530Z,18.20
2023-05-09T08:06:21.817Z,18.20
2023-05-09T08:08:49.850Z,18.20
2023-05-09T08:11:17.893Z,18.20
2023-05-09T08:13:46.090Z,18.20
2023-05-09T08:16:14.271Z,18.20
2023-05-09T08:18:42.390Z,18.20
2023-05-09T08:21:12.617Z,18.20
2023-05-09T08:23:41.210Z,18.10
2023-05-09T08:26:09.279Z,18.10
2023-05-09T08:28:37.258Z,18.10
2023-05-09T08:31:05.299Z,18.10
2023-05-09T08:33:33.486Z,18.00
2023-05-09T08:36:01.663Z,18.10
2023-05-09T08:38:31.018Z,18.10
2023-05-09T08:41:02.264Z,18.10
2023-05-09T08:43:30.884Z,18.20
2023-05-09T08:46:02.170Z,18.20
2023-05-09T08:48:31.276Z,18.30
2023-05-09T08:50:59.967Z,18.40
2023-05-09T08:53:28.182Z,18.50
2023-05-09T08:55:59.574Z,18.50
2023-05-09T08:58:27.901Z,18.70
2023-05-09T09:00:56.630Z,18.80
2023-05-09T09:03:26.349Z,18.90
2023-05-09T09:05:56.078Z,19.10
2023-05-09T09:08:25.645Z,19.30
2023-05-09T09:10:55.475Z,19.40
2023-05-09T09:13:25.292Z,19.60
2023-05-09T09:15:56.282Z,20.10
2023-05-09T09:18:27.872Z,20.60
2023-05-09T09:21:00.775Z,20.90
2023-05-09T09:23:31.440Z,20.90
2023-05-09T09:26:00.270Z,21.00
2023-05-09T09:28:29.849Z,21.00
2023-05-09T09:31:21.147Z,21.00
2023-05-09T09:33:50.091Z,21.00
2023-05-09T09:36:18.319Z,20.90
2023-05-09T09:38:47.497Z,20.80
2023-05-09T09:41:15.685Z,20.60
2023-05-09T09:43:46.721Z,20.60
2023-05-09T09:46:18.436Z,20.60
2023-05-09T09:48:52.826Z,20.50
2023-05-09T09:51:21.201Z,20.50
2023-05-09T09:53:49.471Z,20.50
2023-05-09T09:56:17.563Z,20.50
2023-05-09T09:58:45.574Z,20.50
2023-05-09T10:01:16.641Z,20.40
2023-05-09T10:03:48.152Z,20.50
2023-05-09T10:06:17.822Z,20.60
2023-05-09T10:08:48.886Z,20.60
2023-05-09T10:11:17.444Z,20.70
2023-05-09T10:13:46.466Z,20.70
2023-05-09T10:16:17.104Z,20.90
2023-05-09T10:18:46.361Z,20.90
2023-05-09T10:21:17.012Z,21.00
2023-05-09T10:23:49.688Z,21.10
2023-05-09T10:26:19.539Z,21.20
2023-05-09T10:28:50.809Z,21.60
2023-05-09T10:31:26.811Z,22.10
2023-05-09T10:33:55.854Z,22.30
2023-05-09T10:36:25.074Z,22.20
2023-05-09T10:38:56.290Z,22.20
2023-05-09T10:41:25.664Z,22.20
2023-05-09T10:43:56.603Z,22.60
2023-05-09T10:46:27.328Z,22.80
2023-05-09T10:48:55.902Z,23.00
2023-05-09T10:51:26.085Z,23.50
2023-05-09T10:53:55.961Z,23.70
2023-05-09T10:56:26.395Z,23.60
2023-05-09T10:58:55.098Z,23.50
2023-05-09T11:01:37.241Z,23.30
2023-05-09T11:04:11.776Z,23.20
2023-05-09T11:06:46.507Z,23.00
2023-05-09T11:09:27.216Z,22.60
2023-05-09T11:11:57.042Z,22.40
2023-05-09T11:14:39.424Z,22.30
2023-05-09T11:17:10.036Z,22.10
2023-05-09T11:19:57.736Z,22.10
2023-05-09T11:22:28.024Z,22.10
2023-05-09T11:25:03.292Z,22.00
2023-05-09T11:27:39.106Z,22.10
2023-05-09T11:30:08.839Z,22.20
2023-05-09T11:32:45.877Z,22.60
2023-05-09T11:35:15.976Z,22.90
2023-05-09T11:37:49.707Z,23.60
2023-05-09T11:40:19.255Z,23.50
2023-05-09T11:42:50.411Z,23.50
2023-05-09T11:45:19.185Z,23.60
2023-05-09T11:47:49.529Z,23.30
2023-05-09T11:50:19.525Z,23.20
2023-05-09T11:52:48.122Z,23.20
2023-05-09T11:55:17.759Z,23.50
2023-05-09T11:57:47.803Z,23.90
2023-05-09T12:00:17.966Z,24.30
2023-05-09T12:02:47.162Z,24.50
2023-05-09T12:05:18.815Z,24.80
2023-05-09T12:07:47.544Z,24.90
2023-05-09T12:10:18.056Z,24.90
2023-05-09T12:12:47.435Z,24.60
2023-05-09T12:15:17.119Z,24.20
2023-05-09T12:17:48.091Z,24.00
2023-05-09T12:20:19.141Z,23.70
2023-05-09T12:22:54.687Z,23.50
2023-05-09T12:25:23.942Z,23.60
2023-05-09T12:27:54.680Z,23.70
2023-05-09T12:30:23.142Z,23.70
2023-05-09T12:32:51.467Z,23.60
2023-05-09T12:35:23.855Z,23.40
2023-05-09T12:37:59.369Z,23.20
2023-05-09T12:40:27.874Z,23.10
2023-05-09T12:43:00.949Z,23.30
2023-05-09T12:45:29.373Z,24.00
2023-05-09T12:47:58.756Z,24.50
2023-05-09T12:50:35.844Z,25.00
2023-05-09T12:53:05.305Z,25.90
2023-05-09T12:55:41.702Z,26.90
2023-05-09T12:58:09.722Z,27.90
2023-05-09T13:00:44.466Z,27.70
2023-05-09T13:03:26.169Z,26.60
2023-05-09T13:06:00.286Z,25.50
2023-05-09T13:08:29.116Z,24.60
2023-05-09T13:11:08.077Z,24.10
2023-05-09T13:13:43.686Z,23.80
2023-05-09T13:16:14.052Z,24.00
2023-05-09T13:18:43.857Z,24.20
2023-05-09T13:21:13.912Z,24.30
2023-05-09T13:23:44.516Z,23.80
2023-05-09T13:26:13.747Z,23.30
2023-05-09T13:28:41.805Z,23.00
2023-05-09T13:31:09.844Z,22.70
2023-05-09T13:33:37.924Z,22.60
2023-05-09T13:36:07.227Z,22.40
2023-05-09T13:38:40.337Z,22.40
2023-05-09T13:41:08.796Z,22.30
2023-05-09T13:43:37.594Z,22.30
2023-05-09T13:46:05.810Z,22.40
2023-05-09T13:48:34.120Z,22.40
2023-05-09T13:51:02.391Z,22.50
2023-05-09T13:53:30.582Z,22.60
2023-05-09T13:56:00.103Z,22.70
2023-05-09T13:58:28.502Z,22.80
2023-05-09T14:00:56.588Z,22.70
2023-05-09T14:03:24.721Z,22.80
2023-05-09T14:05:53.556Z,23.10
2023-05-09T14:08:22.205Z,23.40
2023-05-09T14:10:50.233Z,23.70
2023-05-09T14:13:19.799Z,24.20
2023-05-09T14:15:48.292Z,24.40
2023-05-09T14:18:20.110Z,24.70
2023-05-09T14:20:48.889Z,24.50
2023-05-09T14:23:16.993Z,24.00
2023-05-09T14:25:45.281Z,23.70
2023-05-09T14:28:13.430Z,23.60
2023-05-09T14:30:42.929Z,23.50
2023-05-09T14:33:11.169Z,23.40
2023-05-09T14:35:41.411Z,23.20
2023-05-09T14:38:09.875Z,22.90
2023-05-09T14:40:37.953Z,22.70
2023-05-09T14:43:06.010Z,22.60
2023-05-09T14:45:34.914Z,22.40
2023-05-09T14:48:04.554Z,22.30
2023-05-09T14:50:33.428Z,22.30
2023-05-09T14:53:02.072Z,22.30
2023-05-09T14:55:31.329Z,22.30
2023-05-09T14:57:59.464Z,22.40
2023-05-09T15:00:28.457Z,22.40
2023-05-09T15:02:57.120Z,22.40
2023-05-09T15:05:26.766Z,22.50
2023-05-09T15:07:54.970Z,22.60
2023-05-09T15:10:23.410Z,22.60
2023-05-09T15:12:51.495Z,22.50
2023-05-09T15:15:23.204Z,22.40
2023-05-09T15:17:51.639Z,22.30
2023-05-09T15:20:20.420Z,22.10
2023-05-09T15:22:51.097Z,21.90
2023-05-09T15:25:19.845Z,21.80
2023-05-09T15:27:50.411Z,21.60
2023-05-09T15:30:18.686Z,21.60
2023-05-09T15:32:46.933Z,21.50
2023-05-09T15:35:16.114Z,21.40
2023-05-09T15:37:44.241Z,21.30
2023-05-09T15:40:14.357Z,21.20
2023-05-09T15:42:42.659Z,21.20
2023-05-09T15:45:11.063Z,21.10
2023-05-09T15:47:39.129Z,21.10
2023-05-09T15:50:08.351Z,21.00
2023-05-09T15:52:36.650Z,21.00
2023-05-09T15:55:04.980Z,21.00
2023-05-09T15:57:34.646Z,21.10
2023-05-09T16:00:03.436Z,21.10
2023-05-09T16:02:31.659Z,21.10
2023-05-09T16:04:59.748Z,21.10
2023-05-09T16:07:28.022Z,21.10
2023-05-09T16:09:56.523Z,21.10
2023-05-09T16:12:25.234Z,21.10
2023-05-09T16:14:54.666Z,21.00
2023-05-09T16:17:22.836Z,21.00
2023-05-09T16:19:51.083Z,20.90
2023-05-09T16:22:19.264Z,20.80
2023-05-09T16:24:49.113Z,20.80
2023-05-09T16:27:17.617Z,20.70
2023-05-09T16:29:45.859Z,20.70
2023-05-09T16:32:15.272Z,20.70
2023-05-09T16:34:43.416Z,20.70
2023-05-09T16:37:11.583Z,20.80
2023-05-09T16:39:39.686Z,20.80
2023-05-09T16:42:07.759Z,20.90
2023-05-09T16:44:35.965Z,20.90
2023-05-09T16:47:04.176Z,20.80
2023-05-09T16:49:33.905Z,20.80
2023-05-09T16:52:01.986Z,20.80
2023-05-09T16:54:31.253Z,20.70
2023-05-09T16:56:59.322Z,20.70
2023-05-09T16:59:27.720Z,20.70
2023-05-09T17:01:57.783Z,20.60
2023-05-09T17:04:26.296Z,20.50
2023-05-09T17:06:55.785Z,20.40
2023-05-09T17:09:23.853Z,20.30
2023-05-09T17:11:51.954Z,20.30
2023-05-09T17:14:19.989Z,20.20
2023-05-09T17:16:48.045Z,20.10
2023-05-09T17:19:17.065Z,20.00
2023-05-09T17:21:45.973Z,19.90
2023-05-09T17:24:15.894Z,19.90
2023-05-09T17:26:44.210Z,19.80
2023-05-09T17:29:12.323Z,19.70
2023-05-09T17:31:40.757Z,19.60
2023-05-09T17:34:09.105Z,19.60
2023-05-09T17:36:37.216Z,19.60
2023-05-09T17:39:05.996Z,19.60
2023-05-09T17:41:38.037Z,19.60
2023-05-09T17:44:08.888Z,19.50
2023-05-09T17:46:37.894Z,19.50
2023-05-09T17:49:07.762Z,19.50
2023-05-09T17:51:36.034Z,19.50
2023-05-09T17:54:06.473Z,19.40
2023-05-09T17:56:37.111Z,19.40
2023-05-09T17:59:05.336Z,19.30
2023-05-09T18:01:33.615Z,19.20
2023-05-09T18:04:02.312Z,19.20
2023-05-09T18:06:32.255Z,19.10
2023-05-09T18:09:00.686Z,19.00
2023-05-09T18:11:28.846Z,19.00
2023-05-09T18:13:59.870Z,18.90
2023-05-09T18:16:29.566Z,18.80
2023-05-09T18:19:00.602Z,18.80
2023-05-09T18:21:31.186Z,18.70
2023-05-09T18:24:01.942Z,18.30
2023-05-09T18:26:30.842Z,18.60
2023-05-09T18:29:02.551Z,18.50
2023-05-09T18:31:31.728Z,18.50
2023-05-09T18:34:01.503Z,18.40
2023-05-09T18:36:30.199Z,18.40
2023-05-09T18:38:58.942Z,18.30
2023-05-09T18:41:29.501Z,18.30
2023-05-09T18:44:01.317Z,18.20
2023-05-09T18:46:31.839Z,18.10
2023-05-09T18:49:03.353Z,18.10
2023-05-09T18:51:32.345Z,18.00
2023-05-09T18:54:00.819Z,17.90
2023-05-09T18:56:29.117Z,17.90
2023-05-09T18:58:57.395Z,17.80
2023-05-09T19:01:27.152Z,17.80
2023-05-09T19:03:55.789Z,17.70
2023-05-09T19:06:26.565Z,17.70
2023-05-09T19:08:55.023Z,17.70
2023-05-09T19:11:25.028Z,17.60
2023-05-09T19:13:54.408Z,17.50
2023-05-09T19:16:26.914Z,17.50
2023-05-09T19:18:58.561Z,17.50
2023-05-09T19:21:29.838Z,17.40
2023-05-09T19:23:58.803Z,17.40
2023-05-09T19:26:27.761Z,17.40
2023-05-09T19:28:56.414Z,17.30
2023-05-09T19:31:25.689Z,17.30
2023-05-09T19:33:54.436Z,17.20
2023-05-09T19:36:25.327Z,17.20
2023-05-09T19:38:53.800Z,17.20
2023-05-09T19:41:23.030Z,17.10
2023-05-09T19:43:51.483Z,17.10
2023-05-09T19:46:20.319Z,17.00
2023-05-09T19:48:48.777Z,17.00
2023-05-09T19:51:18.456Z,16.90
2023-05-09T19:53:53.467Z,16.90
2023-05-09T19:56:23.349Z,16.90
2023-05-09T19:58:51.853Z,16.80
2023-05-09T20:01:20.695Z,16.70
2023-05-09T20:03:52.160Z,16.60
2023-05-09T20:06:21.412Z,16.60
2023-05-09T20:08:52.342Z,16.60
2023-05-09T20:11:21.931Z,16.50
2023-05-09T20:13:51.348Z,16.50
2023-05-09T20:16:23.372Z,16.40
2023-05-09T20:18:52.863Z,16.40
2023-05-09T20:21:22.010Z,16.30
2023-05-09T20:23:52.177Z,16.20
2023-05-09T20:26:24.447Z,16.20
2023-05-09T20:28:54.525Z,16.10
2023-05-09T20:31:23.852Z,16.00
2023-05-09T20:33:54.671Z,16.00
2023-05-09T20:36:24.554Z,15.90
2023-05-09T20:38:55.033Z,15.90
2023-05-09T20:41:24.239Z,15.90
2023-05-09T20:43:52.729Z,15.80
2023-05-09T20:46:21.654Z,15.80
2023-05-09T20:48:52.664Z,15.70
2023-05-09T20:51:21.002Z,15.70
2023-05-09T20:53:49.974Z,15.70
2023-05-09T20:56:19.983Z,15.70
2023-05-09T20:58:48.502Z,15.60
2023-05-09T21:01:17.857Z,15.60
2023-05-09T21:03:46.264Z,15.60
2023-05-09T21:06:14.903Z,15.60
2023-05-09T21:08:43.368Z,15.50
2023-05-09T21:11:12.481Z,15.50
2023-05-09T21:13:43.262Z,15.50
2023-05-09T21:16:12.115Z,15.50
2023-05-09T21:18:40.518Z,15.50
2023-05-09T21:21:09.345Z,15.50
2023-05-09T21:23:38.414Z,15.50
2023-05-09T21:26:06.855Z,15.50
2023-05-09T21:28:34.965Z,15.50
2023-05-09T21:31:05.016Z,15.50
2023-05-09T21:33:33.231Z,15.50
2023-05-09T21:36:02.224Z,15.50
2023-05-09T21:38:30.482Z,15.50
2023-05-09T21:40:59.204Z,15.50
2023-05-09T21:43:28.668Z,15.40
2023-05-09T21:45:57.062Z,15.40
2023-05-09T21:48:26.582Z,15.40
2023-05-09T21:50:54.886Z,15.30
2023-05-09T21:53:23.630Z,15.30
2023-05-09T21:55:52.215Z,15.30
2023-05-09T21:58:21.247Z,15.30
2023-05-09T22:00:50.217Z,15.30
2023-05-09T22:03:18.366Z,15.20
2023-05-09T22:05:47.927Z,15.30
2023-05-09T22:08:16.047Z,15.20
2023-05-09T22:10:44.184Z,15.20
2023-05-09T22:13:12.302Z,15.20
2023-05-09T22:15:40.672Z,15.20
2023-05-09T22:18:09.032Z,15.20
2023-05-09T22:20:37.121Z,15.20
2023-05-09T22:23:06.702Z,15.10
2023-05-09T22:25:34.807Z,15.10
2023-05-09T22:28:02.861Z,15.10
2023-05-09T22:30:31.774Z,15.10
2023-05-09T22:33:01.017Z,15.10
2023-05-09T22:35:29.163Z,15.10
2023-05-09T22:37:57.224Z,15.00
2023-05-09T22:40:26.973Z,15.00
2023-05-09T22:42:54.961Z,15.00
2023-05-09T22:45:23.144Z,15.00
2023-05-09T22:47:51.222Z,15.00
2023-05-09T22:50:19.758Z,15.00
2023-05-09T22:52:47.845Z,15.00
2023-05-09T22:55:15.961Z,15.00
2023-05-09T22:57:45.321Z,14.90
2023-05-09T23:00:14.991Z,14.90
2023-05-09T23:02:43.419Z,14.90
2023-05-09T23:05:11.526Z,14.90
2023-05-09T23:07:39.575Z,15.00
2023-05-09T23:10:08.393Z,14.90
2023-05-09T23:12:37.898Z,15.00
2023-05-09T23:15:08.457Z,15.00
2023-05-09T23:17:36.747Z,15.00
2023-05-09T23:20:05.401Z,15.00
2023-05-09T23:22:33.491Z,15.00
2023-05-09T23:25:01.808Z,14.90
2023-05-09T23:27:31.251Z,14.90
2023-05-09T23:29:59.212Z,14.90
2023-05-09T23:32:28.750Z,14.90
2023-05-09T23:34:57.000Z,14.90
2023-05-09T23:37:27.836Z,14.90
2023-05-09T23:39:56.206Z,14.90
2023-05-09T23:42:24.352Z,14.90
2023-05-09T23:44:52.471Z,14.90
2023-05-09T23:47:20.523Z,14.90
2023-05-09T23:49:50.041Z,14.90
2023-05-09T23:52:18.095Z,14.90
2023-05-09T23:54:46.494Z,14.90
2023-05-09T23:57:14.573Z,14.90
2023-05-09T23:59:42.760Z,14.90
